createdAt,value
2023-07-02T00:03:41.080Z,18.34
2023-07-02T00:08:42.701Z,18.39
2023-07-02T00:13:44.233Z,18.39
2023-07-02T00:18:45.724Z,18.36
2023-07-02T00:23:48.453Z,18.41
2023-07-02T00:28:49.980Z,18.46
2023-07-02T00:33:51.800Z,18.51
2023-07-02T00:38:53.889Z,18.50
2023-07-02T00:43:55.838Z,18.41
2023-07-02T00:48:58.161Z,18.40
2023-07-02T00:54:00.096Z,18.45
2023-07-02T00:59:01.916Z,18.55
2023-07-02T01:04:06.449Z,18.61
2023-07-02T01:09:08.554Z,18.66
2023-07-02T01:14:13.979Z,18.68
2023-07-02T01:19:52.716Z,18.68
2023-07-02T01:24:55.991Z,18.66
2023-07-02T01:29:58.377Z,18.66
2023-07-02T01:35:00.052Z,18.64
2023-07-02T01:40:01.734Z,18.60
2023-07-02T01:45:03.853Z,18.64
2023-07-02T01:50:06.507Z,18.65
2023-07-02T01:55:08.523Z,18.59
2023-07-02T02:00:10.631Z,18.53
2023-07-02T02:05:12.206Z,18.51
2023-07-02T02:10:15.777Z,18.50
2023-07-02T02:15:17.635Z,18.48
2023-07-02T02:20:19.919Z,18.40
2023-07-02T02:25:21.627Z,18.31
2023-07-02T02:30:23.144Z,18.20
2023-07-02T02:35:24.745Z,18.02
2023-07-02T02:40:26.246Z,17.80
2023-07-02T02:45:27.718Z,17.70
2023-07-02T02:50:29.197Z,17.63
2023-07-02T02:55:30.723Z,17.48
2023-07-02T03:00:32.335Z,17.40
2023-07-02T03:05:34.042Z,17.41
2023-07-02T03:10:35.650Z,17.38
2023-07-02T03:15:37.197Z,17.42
2023-07-02T03:20:38.767Z,17.47
2023-07-02T03:25:40.490Z,17.59
2023-07-02T03:30:42.390Z,17.57
2023-07-02T03:35:44.056Z,17.58
2023-07-02T03:40:46.139Z,17.54
2023-07-02T03:45:48.152Z,17.62
2023-07-02T03:50:49.741Z,17.60
2023-07-02T03:55:51.913Z,17.63
2023-07-02T04:00:53.469Z,17.56
2023-07-02T04:05:55.118Z,17.51
2023-07-02T04:10:56.659Z,17.56
2023-07-02T04:15:58.513Z,17.65
2023-07-02T04:21:02.643Z,17.71
2023-07-02T04:26:17.719Z,17.74
2023-07-02T04:31:26.244Z,17.73
2023-07-02T04:36:29.729Z,18.03
2023-07-02T04:41:31.668Z,18.52
2023-07-02T04:46:35.639Z,20.41
2023-07-02T04:51:37.602Z,20.55
2023-07-02T04:56:41.514Z,19.83
2023-07-02T05:01:43.913Z,19.52
2023-07-02T05:06:45.634Z,19.24
2023-07-02T05:11:47.439Z,19.23
2023-07-02T05:16:49.430Z,19.68
2023-07-02T05:21:51.143Z,20.51
2023-07-02T05:26:53.079Z,20.72
2023-07-02T05:31:54.923Z,21.05
2023-07-02T05:36:56.654Z,22.53
2023-07-02T05:42:01.008Z,23.03
2023-07-02T05:47:02.653Z,22.76
2023-07-02T05:52:04.749Z,22.95
2023-07-02T05:57:09.283Z,25.02
2023-07-02T06:02:10.779Z,27.20
2023-07-02T06:07:12.402Z,25.83
2023-07-02T06:12:17.338Z,26.66
2023-07-02T06:17:18.959Z,24.62
2023-07-02T06:22:20.638Z,24.75
2023-07-02T06:27:22.278Z,25.48
2023-07-02T06:32:23.880Z,27.02
2023-07-02T06:37:25.464Z,28.14
2023-07-02T06:42:30.381Z,30.79
2023-07-02T06:47:32.415Z,30.49
2023-07-02T06:52:34.129Z,32.91
2023-07-02T06:57:35.901Z,35.36
2023-07-02T07:02:37.467Z,37.36
2023-07-02T07:07:39.190Z,38.44
2023-07-02T07:12:41.155Z,39.03
2023-07-02T07:17:42.716Z,39.16
2023-07-02T07:22:44.461Z,37.89
2023-07-02T07:27:46.224Z,37.28
2023-07-02T07:32:54.800Z,38.57
2023-07-02T07:37:56.664Z,39.88
2023-07-02T07:42:58.385Z,40.90
2023-07-02T07:48:00.155Z,41.51
2023-07-02T07:53:02.139Z,41.52
2023-07-02T07:58:03.889Z,41.07
2023-07-02T08:03:05.560Z,41.07
2023-07-02T08:08:07.345Z,41.44
2023-07-02T08:13:11.923Z,41.43
2023-07-02T08:18:14.480Z,40.90
2023-07-02T08:23:15.998Z,41.71
2023-07-02T08:28:17.588Z,41.86
2023-07-02T08:33:19.171Z,42.21
2023-07-02T08:38:20.714Z,42.16
2023-07-02T08:43:24.440Z,42.51
2023-07-02T08:48:27.623Z,41.70
2023-07-02T08:53:34.598Z,41.70
2023-07-02T08:58:36.163Z,39.40
2023-07-02T09:03:38.649Z,40.81
2023-07-02T09:08:40.388Z,41.00
2023-07-02T09:13:54.170Z,39.68
2023-07-02T09:19:09.439Z,39.76
2023-07-02T09:24:22.592Z,37.95
2023-07-02T09:29:25.300Z,34.77
2023-07-02T09:34:34.465Z,36.29
2023-07-02T09:39:37.308Z,36.33
2023-07-02T09:44:39.496Z,35.45
2023-07-02T09:49:50.040Z,34.75
2023-07-02T09:54:51.635Z,34.64
2023-07-02T09:59:53.372Z,32.88
2023-07-02T10:04:56.511Z,31.91
2023-07-02T10:09:58.546Z,31.03
2023-07-02T10:15:00.437Z,29.77
2023-07-02T10:20:08.136Z,29.54
2023-07-02T10:25:09.735Z,29.61
2023-07-02T10:30:11.817Z,29.58
2023-07-02T10:35:17.813Z,29.87
2023-07-02T10:40:19.295Z,30.19
2023-07-02T10:45:22.070Z,29.92
2023-07-02T10:50:24.389Z,29.27
2023-07-02T10:55:27.314Z,28.52
2023-07-02T11:00:28.826Z,28.40
2023-07-02T11:05:30.521Z,28.48
2023-07-02T11:10:34.512Z,27.98
2023-07-02T11:15:38.269Z,28.18
2023-07-02T11:20:41.984Z,28.16
2023-07-02T11:25:43.513Z,28.53
2023-07-02T11:30:48.012Z,28.73
2023-07-02T11:35:49.824Z,28.18
2023-07-02T11:40:51.684Z,28.57
2023-07-02T11:45:53.346Z,28.55
2023-07-02T11:50:54.832Z,28.36
2023-07-02T11:55:56.315Z,28.20
2023-07-02T12:00:57.813Z,28.57
2023-07-02T12:05:59.333Z,28.89
2023-07-02T12:11:00.815Z,29.00
2023-07-02T12:16:02.398Z,28.88
2023-07-02T12:21:04.263Z,29.01
2023-07-02T12:26:05.932Z,28.89
2023-07-02T12:31:07.596Z,28.89
2023-07-02T12:36:09.186Z,29.07
2023-07-02T12:41:10.686Z,29.45
2023-07-02T12:46:12.217Z,29.32
2023-07-02T12:51:13.693Z,29.05
2023-07-02T12:56:15.313Z,29.06
2023-07-02T13:01:16.778Z,28.91
2023-07-02T13:06:18.420Z,28.64
2023-07-02T13:11:19.941Z,28.12
2023-07-02T13:16:21.617Z,27.93
2023-07-02T13:21:23.409Z,27.91
2023-07-02T13:26:24.919Z,28.24
2023-07-02T13:31:26.697Z,28.33
2023-07-02T13:36:31.182Z,28.16
2023-07-02T13:41:32.782Z,28.21
2023-07-02T13:46:34.603Z,28.18
2023-07-02T13:51:36.968Z,28.18
2023-07-02T13:56:38.434Z,28.36
2023-07-02T14:01:39.919Z,28.49
2023-07-02T14:06:41.916Z,28.57
2023-07-02T14:11:44.830Z,28.23
2023-07-02T14:16:47.132Z,28.27
2023-07-02T14:21:48.719Z,28.51
2023-07-02T14:26:50.289Z,28.27
2023-07-02T14:31:51.936Z,28.21
2023-07-02T14:36:53.730Z,28.12
2023-07-02T14:41:55.328Z,28.13
2023-07-02T14:46:56.887Z,28.24
2023-07-02T14:51:58.439Z,28.20
2023-07-02T14:56:59.927Z,28.18
2023-07-02T15:02:01.405Z,28.12
2023-07-02T15:07:03.041Z,28.16
2023-07-02T15:12:04.593Z,28.05
2023-07-02T15:17:06.386Z,28.01
2023-07-02T15:22:07.963Z,27.99
2023-07-02T15:27:09.656Z,28.01
2023-07-02T15:32:11.261Z,27.84
2023-07-02T15:37:13.869Z,27.70
2023-07-02T15:42:15.544Z,27.60
2023-07-02T15:47:17.028Z,27.64
2023-07-02T15:52:19.633Z,27.65
2023-07-02T15:57:21.111Z,27.62
2023-07-02T16:02:24.535Z,27.53
2023-07-02T16:07:26.302Z,27.32
2023-07-02T16:12:27.754Z,27.26
2023-07-02T16:17:29.284Z,27.21
2023-07-02T16:22:30.912Z,27.16
2023-07-02T16:27:34.972Z,27.02
2023-07-02T16:32:36.551Z,27.00
2023-07-02T16:37:38.178Z,26.95
2023-07-02T16:42:39.762Z,26.96
2023-07-02T16:47:41.308Z,26.87
2023-07-02T16:52:42.922Z,26.72
2023-07-02T16:57:44.463Z,26.69
2023-07-02T17:02:46.004Z,26.60
2023-07-02T17:07:47.801Z,26.42
2023-07-02T17:12:49.302Z,26.29
2023-07-02T17:17:52.741Z,26.16
2023-07-02T17:22:54.447Z,26.07
2023-07-02T17:27:55.909Z,26.03
2023-07-02T17:32:57.504Z,25.89
2023-07-02T17:37:59.125Z,25.79
2023-07-02T17:43:00.686Z,25.68
2023-07-02T17:48:02.423Z,25.60
2023-07-02T17:53:03.941Z,25.48
2023-07-02T17:58:05.492Z,25.35
2023-07-02T18:03:07.020Z,25.21
2023-07-02T18:08:08.643Z,25.08
2023-07-02T18:13:10.250Z,24.94
2023-07-02T18:18:11.814Z,24.87
2023-07-02T18:23:13.509Z,24.73
2023-07-02T18:28:15.492Z,24.57
2023-07-02T18:33:17.566Z,24.41
2023-07-02T18:38:19.472Z,24.23
2023-07-02T18:43:20.960Z,24.04
2023-07-02T18:48:22.657Z,23.93
2023-07-02T18:53:25.463Z,23.78
2023-07-02T18:58:28.525Z,23.63
2023-07-02T19:03:30.119Z,23.47
2023-07-02T19:08:31.740Z,23.29
2023-07-02T19:13:34.624Z,23.12
2023-07-02T19:18:36.289Z,22.95
2023-07-02T19:23:37.796Z,22.82
2023-07-02T19:28:39.330Z,22.64
2023-07-02T19:33:40.920Z,22.47
2023-07-02T19:38:42.440Z,22.29
2023-07-02T19:43:43.972Z,22.10
2023-07-02T19:48:45.897Z,21.94
2023-07-02T19:53:47.415Z,21.81
2023-07-02T19:58:50.274Z,21.66
2023-07-02T20:03:52.724Z,21.58
2023-07-02T20:08:54.431Z,21.41
2023-07-02T20:13:55.920Z,21.24
2023-07-02T20:18:57.399Z,21.08
2023-07-02T20:24:00.412Z,20.92
2023-07-02T20:29:04.020Z,20.77
2023-07-02T20:34:06.093Z,20.70
2023-07-02T20:39:08.028Z,20.60
2023-07-02T20:44:09.536Z,20.56
2023-07-02T20:49:14.021Z,20.51
2023-07-02T20:54:17.714Z,20.32
2023-07-02T20:59:21.451Z,20.15
2023-07-02T21:04:22.947Z,20.06
2023-07-02T21:09:25.395Z,20.04
2023-07-02T21:14:26.855Z,20.06
2023-07-02T21:19:29.025Z,19.97
2023-07-02T21:24:30.578Z,19.88
2023-07-02T21:29:32.281Z,19.84
2023-07-02T21:34:36.628Z,19.85
2023-07-02T21:39:38.470Z,19.88
2023-07-02T21:44:39.968Z,19.93
2023-07-02T21:49:41.415Z,19.92
2023-07-02T21:54:42.875Z,19.97
2023-07-02T21:59:44.917Z,19.98
2023-07-02T22:04:47.100Z,19.97
2023-07-02T22:09:49.025Z,20.01
2023-07-02T22:14:57.319Z,20.02
2023-07-02T22:20:01.791Z,20.12
2023-07-02T22:25:04.714Z,20.18
2023-07-02T22:30:10.170Z,20.25
2023-07-02T22:35:11.806Z,20.31
2023-07-02T22:40:16.765Z,20.35
2023-07-02T22:45:18.593Z,20.34
2023-07-02T22:50:20.156Z,20.33
2023-07-02T22:55:21.698Z,20.34
2023-07-02T23:00:23.344Z,20.32
2023-07-02T23:05:25.027Z,20.40
2023-07-02T23:10:26.608Z,20.42
2023-07-02T23:15:28.048Z,20.42
2023-07-02T23:20:29.488Z,20.38
2023-07-02T23:25:31.374Z,20.27
2023-07-02T23:30:38.930Z,20.18
2023-07-02T23:35:40.621Z,20.12
2023-07-02T23:40:42.117Z,20.04
2023-07-02T23:45:43.597Z,20.01
2023-07-02T23:50:46.857Z,20.02
2023-07-02T23:55:50.244Z,19.98
